Geneva, Georgia
Current Conditions -  °F | °C
As of 6:51 PM on Wednesday 22 Oct 2014 (Local Time) from KCSG Reporting Station
Clear Clear  
Wind Chill: 68°   Ceiling: Unl
Heat Index: 68°   Visibility: 10mi
Dew Point: 41°   Wind: 3mph
Humidity: 37%   Direction: 60°ENE
Pressure: 30.06"   Gusts: NA
Location:  32.58°N, 84.55°W
Report Text: KCSG 222251Z 06003KT 10SM CLR 20/05 A3006 RMK AO2 SLP175 T02000050
Loading
Personal Weather Stations






























Interactive Weather Map
Tropical Storm Tracking
New forecast layout! Learn more

10-Day Weather Forecast

Advertisements
Track Severe Weather on mobile